sensor_id;sensor_type;location;lat;lon;timestamp;temperature;humidity
35668;DHT22;22158;59.280;17.806;2022-10-28T00:02:03;11.60;99.90
35668;DHT22;22158;59.280;17.806;2022-10-28T00:04:28;11.50;99.90
35668;DHT22;22158;59.280;17.806;2022-10-28T00:06:54;11.50;99.90
35668;DHT22;22158;59.280;17.806;2022-10-28T00:09:19;11.50;99.90
35668;DHT22;22158;59.280;17.806;2022-10-28T00:11:45;11.50;99.90
35668;DHT22;22158;59.280;17.806;2022-10-28T00:14:11;11.50;99.90
35668;DHT22;22158;59.280;17.806;2022-10-28T00:16:38;11.50;99.90
35668;DHT22;22158;59.280;17.806;2022-10-28T00:19:05;11.60;99.90
35668;DHT22;22158;59.280;17.806;2022-10-28T00:21:34;11.60;99.90
35668;DHT22;22158;59.280;17.806;2022-10-28T00:24:00;11.60;99.90
35668;DHT22;22158;59.280;17.806;2022-10-28T00:26:28;11.50;99.90
35668;DHT22;22158;59.280;17.806;2022-10-28T00:28:59;11.50;99.90
35668;DHT22;22158;59.280;17.806;2022-10-28T00:31:27;11.50;99.90
35668;DHT22;22158;59.280;17.806;2022-10-28T00:33:54;11.50;99.90
35668;DHT22;22158;59.280;17.806;2022-10-28T00:36:34;11.60;99.90
35668;DHT22;22158;59.280;17.806;2022-10-28T00:39:02;11.60;99.90
35668;DHT22;22158;59.280;17.806;2022-10-28T00:41:30;11.60;99.90
35668;DHT22;22158;59.280;17.806;2022-10-28T00:44:01;11.60;99.90
35668;DHT22;22158;59.280;17.806;2022-10-28T00:46:45;11.60;99.90
35668;DHT22;22158;59.280;17.806;2022-10-28T00:49:17;11.50;99.90
35668;DHT22;22158;59.280;17.806;2022-10-28T00:51:48;11.50;99.90
35668;DHT22;22158;59.280;17.806;2022-10-28T00:54:16;11.40;99.90
35668;DHT22;22158;59.280;17.806;2022-10-28T00:56:47;11.40;99.90
35668;DHT22;22158;59.280;17.806;2022-10-28T00:59:32;11.40;99.90
35668;DHT22;22158;59.280;17.806;2022-10-28T01:01:58;11.40;99.90
35668;DHT22;22158;59.280;17.806;2022-10-28T01:04:24;11.40;99.90
35668;DHT22;22158;59.280;17.806;2022-10-28T01:06:50;11.30;99.90
35668;DHT22;22158;59.280;17.806;2022-10-28T01:09:16;11.30;99.90
35668;DHT22;22158;59.280;17.806;2022-10-28T01:12:26;11.30;99.90
35668;DHT22;22158;59.280;17.806;2022-10-28T01:23:51;11.20;99.90
35668;DHT22;22158;59.280;17.806;2022-10-28T01:35:20;11.10;99.90
35668;DHT22;22158;59.280;17.806;2022-10-28T01:37:55;11.20;99.90
35668;DHT22;22158;59.280;17.806;2022-10-28T01:43:26;11.20;99.90
35668;DHT22;22158;59.280;17.806;2022-10-28T01:45:58;11.30;99.90
35668;DHT22;22158;59.280;17.806;2022-10-28T01:48:31;11.40;99.90
35668;DHT22;22158;59.280;17.806;2022-10-28T01:51:12;11.40;99.90
35668;DHT22;22158;59.280;17.806;2022-10-28T01:53:42;11.40;99.90
35668;DHT22;22158;59.280;17.806;2022-10-28T01:56:14;11.40;99.90
35668;DHT22;22158;59.280;17.806;2022-10-28T01:58:40;11.40;99.90
35668;DHT22;22158;59.280;17.806;2022-10-28T02:01:08;11.40;99.90
35668;DHT22;22158;59.280;17.806;2022-10-28T02:03:34;11.40;99.90
35668;DHT22;22158;59.280;17.806;2022-10-28T02:06:02;11.40;99.90
35668;DHT22;22158;59.280;17.806;2022-10-28T02:11:08;11.50;99.90
35668;DHT22;22158;59.280;17.806;2022-10-28T02:16:35;11.50;99.90
35668;DHT22;22158;59.280;17.806;2022-10-28T02:22:21;11.50;99.90
35668;DHT22;22158;59.280;17.806;2022-10-28T02:27:43;11.70;99.90
35668;DHT22;22158;59.280;17.806;2022-10-28T02:30:37;11.70;99.90
35668;DHT22;22158;59.280;17.806;2022-10-28T02:33:10;11.60;99.90
35668;DHT22;22158;59.280;17.806;2022-10-28T02:38:09;11.70;99.90
35668;DHT22;22158;59.280;17.806;2022-10-28T02:40:36;11.70;99.90
35668;DHT22;22158;59.280;17.806;2022-10-28T02:43:06;11.70;99.90
35668;DHT22;22158;59.280;17.806;2022-10-28T02:45:38;11.70;99.90
35668;DHT22;22158;59.280;17.806;2022-10-28T02:48:25;11.70;99.90
35668;DHT22;22158;59.280;17.806;2022-10-28T02:50:57;11.70;99.90
35668;DHT22;22158;59.280;17.806;2022-10-28T02:53:31;11.60;99.90
35668;DHT22;22158;59.280;17.806;2022-10-28T02:55:59;11.60;99.90
35668;DHT22;22158;59.280;17.806;2022-10-28T02:58:26;11.60;99.90
35668;DHT22;22158;59.280;17.806;2022-10-28T03:00:52;11.70;99.90
35668;DHT22;22158;59.280;17.806;2022-10-28T03:03:17;11.60;99.90
35668;DHT22;22158;59.280;17.806;2022-10-28T03:05:43;11.70;99.90
35668;DHT22;22158;59.280;17.806;2022-10-28T03:08:09;11.70;99.90
35668;DHT22;22158;59.280;17.806;2022-10-28T03:10:34;11.70;99.90
35668;DHT22;22158;59.280;17.806;2022-10-28T03:13:00;11.70;99.90
35668;DHT22;22158;59.280;17.806;2022-10-28T03:15:26;11.70;99.90
35668;DHT22;22158;59.280;17.806;2022-10-28T03:17:51;11.60;99.90
35668;DHT22;22158;59.280;17.806;2022-10-28T03:20:17;11.70;99.90
35668;DHT22;22158;59.280;17.806;2022-10-28T03:22:43;11.60;99.90
35668;DHT22;22158;59.280;17.806;2022-10-28T03:25:09;11.60;99.90
35668;DHT22;22158;59.280;17.806;2022-10-28T03:27:34;11.70;99.90
35668;DHT22;22158;59.280;17.806;2022-10-28T03:30:00;11.70;99.90
35668;DHT22;22158;59.280;17.806;2022-10-28T03:32:26;11.70;99.90
35668;DHT22;22158;59.280;17.806;2022-10-28T03:34:51;11.70;99.90
35668;DHT22;22158;59.280;17.806;2022-10-28T03:37:17;11.80;99.90
35668;DHT22;22158;59.280;17.806;2022-10-28T03:39:43;11.80;99.90
35668;DHT22;22158;59.280;17.806;2022-10-28T03:42:08;11.80;99.90
35668;DHT22;22158;59.280;17.806;2022-10-28T03:44:34;11.80;99.90
35668;DHT22;22158;59.280;17.806;2022-10-28T03:46:59;11.70;99.90
35668;DHT22;22158;59.280;17.806;2022-10-28T03:49:25;11.80;99.90
35668;DHT22;22158;59.280;17.806;2022-10-28T03:51:51;11.80;99.90
35668;DHT22;22158;59.280;17.806;2022-10-28T03:54:16;11.80;99.90
35668;DHT22;22158;59.280;17.806;2022-10-28T03:56:42;11.80;99.90
35668;DHT22;22158;59.280;17.806;2022-10-28T03:59:08;11.80;99.90
35668;DHT22;22158;59.280;17.806;2022-10-28T04:01:34;11.80;99.90
35668;DHT22;22158;59.280;17.806;2022-10-28T04:04:00;11.70;99.90
35668;DHT22;22158;59.280;17.806;2022-10-28T04:06:25;11.70;99.90
35668;DHT22;22158;59.280;17.806;2022-10-28T04:08:51;11.70;99.90
35668;DHT22;22158;59.280;17.806;2022-10-28T04:11:17;11.70;99.90
35668;DHT22;22158;59.280;17.806;2022-10-28T04:13:42;11.60;99.90
35668;DHT22;22158;59.280;17.806;2022-10-28T04:16:08;11.70;99.90
35668;DHT22;22158;59.280;17.806;2022-10-28T04:18:34;11.70;99.90
35668;DHT22;22158;59.280;17.806;2022-10-28T04:21:00;11.60;99.90
35668;DHT22;22158;59.280;17.806;2022-10-28T04:23:26;11.60;99.90
35668;DHT22;22158;59.280;17.806;2022-10-28T04:25:54;11.70;99.90
35668;DHT22;22158;59.280;17.806;2022-10-28T04:28:20;11.70;99.90
35668;DHT22;22158;59.280;17.806;2022-10-28T04:30:48;11.60;99.90
35668;DHT22;22158;59.280;17.806;2022-10-28T04:33:14;11.60;99.90
35668;DHT22;22158;59.280;17.806;2022-10-28T04:35:40;11.50;99.90
35668;DHT22;22158;59.280;17.806;2022-10-28T04:38:10;11.50;99.90
35668;DHT22;22158;59.280;17.806;2022-10-28T04:40:36;11.50;99.90
35668;DHT22;22158;59.280;17.806;2022-10-28T04:43:01;11.60;99.90
35668;DHT22;22158;59.280;17.806;2022-10-28T04:45:27;11.50;99.90
35668;DHT22;22158;59.280;17.806;2022-10-28T04:47:57;11.50;99.90
35668;DHT22;22158;59.280;17.806;2022-10-28T04:50:23;11.50;99.90
35668;DHT22;22158;59.280;17.806;2022-10-28T04:52:48;11.40;99.90
35668;DHT22;22158;59.280;17.806;2022-10-28T04:55:14;11.40;99.90
35668;DHT22;22158;59.280;17.806;2022-10-28T04:57:40;11.40;99.90
35668;DHT22;22158;59.280;17.806;2022-10-28T05:00:06;11.40;99.90
35668;DHT22;22158;59.280;17.806;2022-10-28T05:02:32;11.40;99.90
35668;DHT22;22158;59.280;17.806;2022-10-28T05:04:57;11.40;99.90
35668;DHT22;22158;59.280;17.806;2022-10-28T05:07:26;11.30;99.90
35668;DHT22;22158;59.280;17.806;2022-10-28T05:09:52;11.30;99.90
35668;DHT22;22158;59.280;17.806;2022-10-28T05:12:18;11.30;99.90
35668;DHT22;22158;59.280;17.806;2022-10-28T05:14:43;11.30;99.90
35668;DHT22;22158;59.280;17.806;2022-10-28T05:17:10;11.30;99.90
35668;DHT22;22158;59.280;17.806;2022-10-28T05:19:35;11.30;99.90
35668;DHT22;22158;59.280;17.806;2022-10-28T05:22:01;11.30;99.90
35668;DHT22;22158;59.280;17.806;2022-10-28T05:24:27;11.30;99.90
35668;DHT22;22158;59.280;17.806;2022-10-28T05:26:53;11.30;99.90
35668;DHT22;22158;59.280;17.806;2022-10-28T05:29:18;11.30;99.90
35668;DHT22;22158;59.280;17.806;2022-10-28T05:31:45;11.30;99.90
35668;DHT22;22158;59.280;17.806;2022-10-28T05:34:10;11.30;99.90
35668;DHT22;22158;59.280;17.806;2022-10-28T05:36:36;11.30;99.90
35668;DHT22;22158;59.280;17.806;2022-10-28T05:39:03;11.30;99.90
35668;DHT22;22158;59.280;17.806;2022-10-28T05:41:29;11.30;99.90
35668;DHT22;22158;59.280;17.806;2022-10-28T05:43:55;11.30;99.90
35668;DHT22;22158;59.280;17.806;2022-10-28T05:46:21;11.20;99.90
35668;DHT22;22158;59.280;17.806;2022-10-28T05:48:47;11.20;99.90
35668;DHT22;22158;59.280;17.806;2022-10-28T05:51:13;11.20;99.90
35668;DHT22;22158;59.280;17.806;2022-10-28T05:53:38;11.20;99.90
35668;DHT22;22158;59.280;17.806;2022-10-28T05:56:06;11.20;99.90
35668;DHT22;22158;59.280;17.806;2022-10-28T05:58:32;11.30;99.90
35668;DHT22;22158;59.280;17.806;2022-10-28T06:00:58;11.20;99.90
35668;DHT22;22158;59.280;17.806;2022-10-28T06:03:24;11.20;99.90
35668;DHT22;22158;59.280;17.806;2022-10-28T06:05:49;11.30;99.90
35668;DHT22;22158;59.280;17.806;2022-10-28T06:08:15;11.30;99.90
35668;DHT22;22158;59.280;17.806;2022-10-28T06:10:49;11.20;99.90
35668;DHT22;22158;59.280;17.806;2022-10-28T06:13:15;11.20;99.90
35668;DHT22;22158;59.280;17.806;2022-10-28T06:15:41;11.20;99.90
35668;DHT22;22158;59.280;17.806;2022-10-28T06:18:06;11.20;99.90
35668;DHT22;22158;59.280;17.806;2022-10-28T06:20:32;11.20;99.90
35668;DHT22;22158;59.280;17.806;2022-10-28T06:22:57;11.30;99.90
35668;DHT22;22158;59.280;17.806;2022-10-28T06:25:25;11.30;99.90
35668;DHT22;22158;59.280;17.806;2022-10-28T06:27:58;11.30;99.90
35668;DHT22;22158;59.280;17.806;2022-10-28T06:30:26;11.30;99.90
35668;DHT22;22158;59.280;17.806;2022-10-28T06:32:51;11.30;99.90
35668;DHT22;22158;59.280;17.806;2022-10-28T06:35:17;11.30;99.90
35668;DHT22;22158;59.280;17.806;2022-10-28T06:37:43;11.30;99.90
35668;DHT22;22158;59.280;17.806;2022-10-28T06:40:09;11.40;99.90
35668;DHT22;22158;59.280;17.806;2022-10-28T06:42:35;11.40;99.90
35668;DHT22;22158;59.280;17.806;2022-10-28T06:45:00;11.40;99.90
35668;DHT22;22158;59.280;17.806;2022-10-28T06:47:26;11.40;99.90
35668;DHT22;22158;59.280;17.806;2022-10-28T06:49:52;11.30;99.90
35668;DHT22;22158;59.280;17.806;2022-10-28T06:52:17;11.40;99.90
35668;DHT22;22158;59.280;17.806;2022-10-28T06:54:43;11.40;99.90
35668;DHT22;22158;59.280;17.806;2022-10-28T06:57:09;11.40;99.90
35668;DHT22;22158;59.280;17.806;2022-10-28T06:59:35;11.40;99.90
35668;DHT22;22158;59.280;17.806;2022-10-28T07:02:01;11.40;99.90
35668;DHT22;22158;59.280;17.806;2022-10-28T07:04:27;11.40;99.90
35668;DHT22;22158;59.280;17.806;2022-10-28T07:06:56;11.40;99.90
35668;DHT22;22158;59.280;17.806;2022-10-28T07:09:22;11.40;99.90
35668;DHT22;22158;59.280;17.806;2022-10-28T07:11:48;11.40;99.90
35668;DHT22;22158;59.280;17.806;2022-10-28T07:14:14;11.40;99.90
35668;DHT22;22158;59.280;17.806;2022-10-28T07:16:40;11.40;99.90
35668;DHT22;22158;59.280;17.806;2022-10-28T07:19:09;11.40;99.90
35668;DHT22;22158;59.280;17.806;2022-10-28T07:21:34;11.50;99.90
35668;DHT22;22158;59.280;17.806;2022-10-28T07:24:00;11.50;99.90
35668;DHT22;22158;59.280;17.806;2022-10-28T07:26:26;11.50;99.90
35668;DHT22;22158;59.280;17.806;2022-10-28T07:28:52;11.50;99.90
35668;DHT22;22158;59.280;17.806;2022-10-28T07:31:18;11.50;99.90
35668;DHT22;22158;59.280;17.806;2022-10-28T07:33:44;11.50;99.90
35668;DHT22;22158;59.280;17.806;2022-10-28T07:36:10;11.60;99.90
35668;DHT22;22158;59.280;17.806;2022-10-28T07:38:35;11.60;99.90
35668;DHT22;22158;59.280;17.806;2022-10-28T07:41:06;11.70;99.90
35668;DHT22;22158;59.280;17.806;2022-10-28T07:43:37;11.60;99.90
35668;DHT22;22158;59.280;17.806;2022-10-28T07:46:04;11.70;99.90
35668;DHT22;22158;59.280;17.806;2022-10-28T07:48:30;11.70;99.90
35668;DHT22;22158;59.280;17.806;2022-10-28T07:50:59;11.70;99.90
35668;DHT22;22158;59.280;17.806;2022-10-28T07:53:25;11.70;99.90
35668;DHT22;22158;59.280;17.806;2022-10-28T07:56:00;11.70;99.90
35668;DHT22;22158;59.280;17.806;2022-10-28T07:58:27;11.80;99.90
35668;DHT22;22158;59.280;17.806;2022-10-28T08:00:53;11.80;99.90
35668;DHT22;22158;59.280;17.806;2022-10-28T08:03:19;11.80;99.90
35668;DHT22;22158;59.280;17.806;2022-10-28T08:05:45;11.70;99.90
35668;DHT22;22158;59.280;17.806;2022-10-28T08:08:11;11.70;99.90
35668;DHT22;22158;59.280;17.806;2022-10-28T08:10:37;11.80;99.90
35668;DHT22;22158;59.280;17.806;2022-10-28T08:13:02;11.80;99.90
35668;DHT22;22158;59.280;17.806;2022-10-28T08:15:28;11.80;99.90
35668;DHT22;22158;59.280;17.806;2022-10-28T08:17:54;11.80;99.90
35668;DHT22;22158;59.280;17.806;2022-10-28T08:20:20;11.80;99.90
35668;DHT22;22158;59.280;17.806;2022-10-28T08:22:47;11.80;99.90
35668;DHT22;22158;59.280;17.806;2022-10-28T08:25:13;11.90;99.90
35668;DHT22;22158;59.280;17.806;2022-10-28T08:27:38;12.00;99.90
35668;DHT22;22158;59.280;17.806;2022-10-28T08:30:07;11.90;99.90
35668;DHT22;22158;59.280;17.806;2022-10-28T08:32:33;11.90;99.90
35668;DHT22;22158;59.280;17.806;2022-10-28T08:34:59;11.80;99.90
35668;DHT22;22158;59.280;17.806;2022-10-28T08:37:24;11.80;99.90
35668;DHT22;22158;59.280;17.806;2022-10-28T08:39:50;11.80;99.90
35668;DHT22;22158;59.280;17.806;2022-10-28T08:42:45;11.80;99.90
35668;DHT22;22158;59.280;17.806;2022-10-28T08:45:29;11.80;99.90
35668;DHT22;22158;59.280;17.806;2022-10-28T08:48:09;11.80;99.90
35668;DHT22;22158;59.280;17.806;2022-10-28T08:50:54;11.90;99.90
35668;DHT22;22158;59.280;17.806;2022-10-28T08:53:28;11.90;99.90
35668;DHT22;22158;59.280;17.806;2022-10-28T08:56:04;12.00;99.90
35668;DHT22;22158;59.280;17.806;2022-10-28T08:58:33;12.10;99.90
35668;DHT22;22158;59.280;17.806;2022-10-28T09:01:00;12.10;99.90
35668;DHT22;22158;59.280;17.806;2022-10-28T09:03:37;12.10;99.90
35668;DHT22;22158;59.280;17.806;2022-10-28T09:06:06;12.20;99.90
35668;DHT22;22158;59.280;17.806;2022-10-28T09:08:37;12.20;99.90
35668;DHT22;22158;59.280;17.806;2022-10-28T09:16:48;12.50;99.90
35668;DHT22;22158;59.280;17.806;2022-10-28T09:19:51;12.60;99.90
35668;DHT22;22158;59.280;17.806;2022-10-28T09:36:03;12.90;99.90
35668;DHT22;22158;59.280;17.806;2022-10-28T09:38:33;13.00;99.90
35668;DHT22;22158;59.280;17.806;2022-10-28T09:41:15;12.90;99.90
35668;DHT22;22158;59.280;17.806;2022-10-28T09:43:49;12.90;99.90
35668;DHT22;22158;59.280;17.806;2022-10-28T09:46:17;13.00;99.90
35668;DHT22;22158;59.280;17.806;2022-10-28T09:48:46;13.00;99.90
35668;DHT22;22158;59.280;17.806;2022-10-28T09:53:57;13.10;99.90
35668;DHT22;22158;59.280;17.806;2022-10-28T09:56:25;13.30;99.90
35668;DHT22;22158;59.280;17.806;2022-10-28T09:58:51;13.30;99.90
35668;DHT22;22158;59.280;17.806;2022-10-28T10:01:18;13.30;99.90
35668;DHT22;22158;59.280;17.806;2022-10-28T10:03:47;13.40;99.90
35668;DHT22;22158;59.280;17.806;2022-10-28T10:06:21;13.50;99.90
35668;DHT22;22158;59.280;17.806;2022-10-28T10:08:48;13.50;99.90
35668;DHT22;22158;59.280;17.806;2022-10-28T10:11:33;13.60;99.90
35668;DHT22;22158;59.280;17.806;2022-10-28T10:14:05;13.60;99.90
35668;DHT22;22158;59.280;17.806;2022-10-28T10:18:58;13.60;99.90
35668;DHT22;22158;59.280;17.806;2022-10-28T10:21:52;13.60;99.90
35668;DHT22;22158;59.280;17.806;2022-10-28T10:26:53;13.50;99.90
35668;DHT22;22158;59.280;17.806;2022-10-28T10:29:20;13.60;99.90
35668;DHT22;22158;59.280;17.806;2022-10-28T10:31:46;13.60;99.90
35668;DHT22;22158;59.280;17.806;2022-10-28T10:34:30;13.60;99.90
35668;DHT22;22158;59.280;17.806;2022-10-28T10:36:57;13.50;99.90
35668;DHT22;22158;59.280;17.806;2022-10-28T10:39:34;13.50;99.90
35668;DHT22;22158;59.280;17.806;2022-10-28T10:42:01;13.50;99.90
35668;DHT22;22158;59.280;17.806;2022-10-28T10:44:32;13.50;99.90
35668;DHT22;22158;59.280;17.806;2022-10-28T10:49:28;13.50;99.90
35668;DHT22;22158;59.280;17.806;2022-10-28T10:52:14;13.50;99.90
35668;DHT22;22158;59.280;17.806;2022-10-28T10:57:23;13.50;99.90
35668;DHT22;22158;59.280;17.806;2022-10-28T10:59:52;13.40;99.90
35668;DHT22;22158;59.280;17.806;2022-10-28T11:02:37;13.50;99.90
35668;DHT22;22158;59.280;17.806;2022-10-28T11:05:07;13.50;99.90
35668;DHT22;22158;59.280;17.806;2022-10-28T11:07:34;13.50;99.90
35668;DHT22;22158;59.280;17.806;2022-10-28T11:10:01;13.40;99.90
35668;DHT22;22158;59.280;17.806;2022-10-28T11:12:33;13.50;99.90
35668;DHT22;22158;59.280;17.806;2022-10-28T11:18:03;13.50;99.90
35668;DHT22;22158;59.280;17.806;2022-10-28T11:25:52;13.60;99.90
35668;DHT22;22158;59.280;17.806;2022-10-28T11:56:36;13.50;99.90
35668;DHT22;22158;59.280;17.806;2022-10-28T12:01:57;13.60;99.90
35668;DHT22;22158;59.280;17.806;2022-10-28T12:09:51;13.60;99.90
35668;DHT22;22158;59.280;17.806;2022-10-28T12:13:25;13.60;99.90
35668;DHT22;22158;59.280;17.806;2022-10-28T12:15:49;13.60;99.90
35668;DHT22;22158;59.280;17.806;2022-10-28T12:21:06;13.50;99.90
35668;DHT22;22158;59.280;17.806;2022-10-28T12:23:37;13.50;99.90
35668;DHT22;22158;59.280;17.806;2022-10-28T12:26:07;13.50;99.90
35668;DHT22;22158;59.280;17.806;2022-10-28T12:28:44;13.50;99.90
35668;DHT22;22158;59.280;17.806;2022-10-28T12:31:25;13.50;99.90
35668;DHT22;22158;59.280;17.806;2022-10-28T12:33:56;13.40;99.90
35668;DHT22;22158;59.280;17.806;2022-10-28T12:41:44;13.50;99.90
35668;DHT22;22158;59.280;17.806;2022-10-28T12:44:15;13.50;99.90
35668;DHT22;22158;59.280;17.806;2022-10-28T12:49:45;13.60;99.90
35668;DHT22;22158;59.280;17.806;2022-10-28T12:54:58;13.60;99.90
35668;DHT22;22158;59.280;17.806;2022-10-28T12:57:28;13.60;99.90
35668;DHT22;22158;59.280;17.806;2022-10-28T13:00:04;13.60;99.90
35668;DHT22;22158;59.280;17.806;2022-10-28T13:02:38;13.60;99.90
35668;DHT22;22158;59.280;17.806;2022-10-28T13:05:05;13.60;99.90
35668;DHT22;22158;59.280;17.806;2022-10-28T13:07:51;13.70;99.90
35668;DHT22;22158;59.280;17.806;2022-10-28T13:10:35;13.70;99.90
35668;DHT22;22158;59.280;17.806;2022-10-28T13:13:23;13.80;99.90
35668;DHT22;22158;59.280;17.806;2022-10-28T13:16:39;13.80;99.90
35668;DHT22;22158;59.280;17.806;2022-10-28T13:24:27;13.80;99.90
35668;DHT22;22158;59.280;17.806;2022-10-28T13:26:56;13.80;99.90
35668;DHT22;22158;59.280;17.806;2022-10-28T13:29:27;13.80;99.90
35668;DHT22;22158;59.280;17.806;2022-10-28T13:31:54;13.80;99.90
35668;DHT22;22158;59.280;17.806;2022-10-28T13:34:29;13.80;99.90
35668;DHT22;22158;59.280;17.806;2022-10-28T13:37:01;13.80;99.90
35668;DHT22;22158;59.280;17.806;2022-10-28T13:44:53;13.90;99.90
35668;DHT22;22158;59.280;17.806;2022-10-28T13:47:32;13.90;99.90
35668;DHT22;22158;59.280;17.806;2022-10-28T13:52:37;13.90;99.90
35668;DHT22;22158;59.280;17.806;2022-10-28T13:55:23;13.90;99.90
35668;DHT22;22158;59.280;17.806;2022-10-28T13:57:57;13.80;99.90
35668;DHT22;22158;59.280;17.806;2022-10-28T14:02:57;13.80;99.90
35668;DHT22;22158;59.280;17.806;2022-10-28T14:08:34;13.80;99.90
35668;DHT22;22158;59.280;17.806;2022-10-28T14:11:04;13.80;99.90
35668;DHT22;22158;59.280;17.806;2022-10-28T14:13:46;13.70;99.90
35668;DHT22;22158;59.280;17.806;2022-10-28T14:18:54;13.70;99.90
35668;DHT22;22158;59.280;17.806;2022-10-28T14:21:21;13.70;99.90
35668;DHT22;22158;59.280;17.806;2022-10-28T14:23:48;13.70;99.90
35668;DHT22;22158;59.280;17.806;2022-10-28T14:26:14;13.70;99.90
35668;DHT22;22158;59.280;17.806;2022-10-28T14:39:20;13.60;99.90
35668;DHT22;22158;59.280;17.806;2022-10-28T14:41:54;13.60;99.90
35668;DHT22;22158;59.280;17.806;2022-10-28T14:44:33;13.50;99.90
35668;DHT22;22158;59.280;17.806;2022-10-28T14:50:16;13.60;99.90
35668;DHT22;22158;59.280;17.806;2022-10-28T14:52:44;13.60;99.90
35668;DHT22;22158;59.280;17.806;2022-10-28T14:55:28;13.70;99.90
35668;DHT22;22158;59.280;17.806;2022-10-28T14:58:20;13.60;99.90
35668;DHT22;22158;59.280;17.806;2022-10-28T15:03:37;13.50;99.90
35668;DHT22;22158;59.280;17.806;2022-10-28T15:06:39;13.50;99.90
35668;DHT22;22158;59.280;17.806;2022-10-28T15:09:16;13.50;99.90
35668;DHT22;22158;59.280;17.806;2022-10-28T15:11:45;13.40;99.90
35668;DHT22;22158;59.280;17.806;2022-10-28T15:14:20;13.40;99.90
35668;DHT22;22158;59.280;17.806;2022-10-28T15:16:48;13.40;99.90
35668;DHT22;22158;59.280;17.806;2022-10-28T15:19:23;13.40;99.90
35668;DHT22;22158;59.280;17.806;2022-10-28T15:22:17;13.50;99.90
35668;DHT22;22158;59.280;17.806;2022-10-28T15:24:55;13.40;99.90
35668;DHT22;22158;59.280;17.806;2022-10-28T15:27:21;13.50;99.90
35668;DHT22;22158;59.280;17.806;2022-10-28T15:29:48;13.40;99.90
35668;DHT22;22158;59.280;17.806;2022-10-28T15:32:25;13.50;99.90
35668;DHT22;22158;59.280;17.806;2022-10-28T15:34:51;13.50;99.90
35668;DHT22;22158;59.280;17.806;2022-10-28T15:37:19;13.50;99.90
35668;DHT22;22158;59.280;17.806;2022-10-28T15:39:47;13.40;99.90
35668;DHT22;22158;59.280;17.806;2022-10-28T15:42:43;13.40;99.90
35668;DHT22;22158;59.280;17.806;2022-10-28T15:45:22;13.40;99.90
35668;DHT22;22158;59.280;17.806;2022-10-28T15:47:49;13.40;99.90
35668;DHT22;22158;59.280;17.806;2022-10-28T15:52:45;13.40;99.90
35668;DHT22;22158;59.280;17.806;2022-10-28T15:55:30;13.40;99.90
35668;DHT22;22158;59.280;17.806;2022-10-28T16:00:56;13.30;99.90
35668;DHT22;22158;59.280;17.806;2022-10-28T16:06:04;13.30;99.90
35668;DHT22;22158;59.280;17.806;2022-10-28T16:08:31;13.30;99.90
35668;DHT22;22158;59.280;17.806;2022-10-28T16:11:01;13.30;99.90
35668;DHT22;22158;59.280;17.806;2022-10-28T16:13:38;13.30;99.90
35668;DHT22;22158;59.280;17.806;2022-10-28T16:16:11;13.20;99.90
35668;DHT22;22158;59.280;17.806;2022-10-28T16:18:46;13.30;99.90
35668;DHT22;22158;59.280;17.806;2022-10-28T16:21:18;13.30;99.90
35668;DHT22;22158;59.280;17.806;2022-10-28T16:23:49;13.20;99.90
35668;DHT22;22158;59.280;17.806;2022-10-28T16:26:16;13.20;99.90
35668;DHT22;22158;59.280;17.806;2022-10-28T16:28:42;13.20;99.90
35668;DHT22;22158;59.280;17.806;2022-10-28T16:31:14;13.20;99.90
35668;DHT22;22158;59.280;17.806;2022-10-28T16:33:40;13.20;99.90
35668;DHT22;22158;59.280;17.806;2022-10-28T16:36:07;13.20;99.90
35668;DHT22;22158;59.280;17.806;2022-10-28T16:38:33;13.10;99.90
35668;DHT22;22158;59.280;17.806;2022-10-28T16:40:59;13.10;99.90
35668;DHT22;22158;59.280;17.806;2022-10-28T16:43:27;13.10;99.90
35668;DHT22;22158;59.280;17.806;2022-10-28T16:45:54;13.10;99.90
35668;DHT22;22158;59.280;17.806;2022-10-28T16:48:24;13.20;99.90
35668;DHT22;22158;59.280;17.806;2022-10-28T16:50:53;13.20;99.90
35668;DHT22;22158;59.280;17.806;2022-10-28T16:53:19;13.20;99.90
35668;DHT22;22158;59.280;17.806;2022-10-28T16:55:45;13.20;99.90
35668;DHT22;22158;59.280;17.806;2022-10-28T16:58:11;13.20;99.90
35668;DHT22;22158;59.280;17.806;2022-10-28T17:00:38;13.20;99.90
35668;DHT22;22158;59.280;17.806;2022-10-28T17:03:04;13.20;99.90
35668;DHT22;22158;59.280;17.806;2022-10-28T17:05:30;13.20;99.90
35668;DHT22;22158;59.280;17.806;2022-10-28T17:07:56;13.20;99.90
35668;DHT22;22158;59.280;17.806;2022-10-28T17:10:24;13.20;99.90
35668;DHT22;22158;59.280;17.806;2022-10-28T17:12:50;13.20;99.90
35668;DHT22;22158;59.280;17.806;2022-10-28T17:15:16;13.20;99.90
35668;DHT22;22158;59.280;17.806;2022-10-28T17:17:42;13.20;99.90
35668;DHT22;22158;59.280;17.806;2022-10-28T17:20:08;13.30;99.90
35668;DHT22;22158;59.280;17.806;2022-10-28T17:22:34;13.30;99.90
35668;DHT22;22158;59.280;17.806;2022-10-28T17:25:00;13.30;99.90
35668;DHT22;22158;59.280;17.806;2022-10-28T17:27:25;13.30;99.90
35668;DHT22;22158;59.280;17.806;2022-10-28T17:29:51;13.30;99.90
35668;DHT22;22158;59.280;17.806;2022-10-28T17:32:17;13.30;99.90
35668;DHT22;22158;59.280;17.806;2022-10-28T17:34:43;13.30;99.90
35668;DHT22;22158;59.280;17.806;2022-10-28T17:37:09;13.30;99.90
35668;DHT22;22158;59.280;17.806;2022-10-28T17:39:35;13.30;99.90
35668;DHT22;22158;59.280;17.806;2022-10-28T17:42:01;13.40;99.90
35668;DHT22;22158;59.280;17.806;2022-10-28T17:44:27;13.40;99.90
35668;DHT22;22158;59.280;17.806;2022-10-28T17:46:53;13.40;99.90
35668;DHT22;22158;59.280;17.806;2022-10-28T17:49:19;13.40;99.90
35668;DHT22;22158;59.280;17.806;2022-10-28T17:51:44;13.30;99.90
35668;DHT22;22158;59.280;17.806;2022-10-28T17:54:10;13.30;99.90
35668;DHT22;22158;59.280;17.806;2022-10-28T17:56:36;13.30;99.90
35668;DHT22;22158;59.280;17.806;2022-10-28T17:59:02;13.30;99.90
35668;DHT22;22158;59.280;17.806;2022-10-28T18:01:30;13.30;99.90
35668;DHT22;22158;59.280;17.806;2022-10-28T18:03:56;13.30;99.90
35668;DHT22;22158;59.280;17.806;2022-10-28T18:06:22;13.30;99.90
35668;DHT22;22158;59.280;17.806;2022-10-28T18:08:48;13.30;99.90
35668;DHT22;22158;59.280;17.806;2022-10-28T18:11:15;13.40;99.90
35668;DHT22;22158;59.280;17.806;2022-10-28T18:13:43;13.30;99.90
35668;DHT22;22158;59.280;17.806;2022-10-28T18:16:11;13.30;99.90
35668;DHT22;22158;59.280;17.806;2022-10-28T18:18:38;13.30;99.90
35668;DHT22;22158;59.280;17.806;2022-10-28T18:21:04;13.30;99.90
35668;DHT22;22158;59.280;17.806;2022-10-28T18:23:33;13.30;99.90